Time;durP1;ratioP1;P1;durP2;ratioP2;P2;SDS_P1;SDS_P2;PMS_P1;PMS_P2;Temp;Humidity;BMP_temperature;BMP_pressure;BME280_temperature;BME280_humidity;BME280_pressure;Samples;Min_cycle;Max_cycle;Signal;HPM_P1;HPM_P2
2023/08/12 00:00:16;;;;;;;7.53;4.15;;;;;;;19.54;84.97;100728.03;5032783;28;20029;-72
2023/08/12 00:02:43;;;;;;;8.98;4.28;;;;;;;19.70;85.72;100777.84;5032700;28;20033;-73
2023/08/12 00:05:12;;;;;;;7.85;4.18;;;;;;;19.50;87.59;100788.25;5032443;28;20459;-73
2023/08/12 00:07:40;;;;;;;6.50;4.13;;;;;;;19.21;89.23;100786.34;5032630;28;20035;-73
2023/08/12 00:10:06;;;;;;;8.63;4.70;;;;;;;19.04;89.92;100789.72;5032536;28;20033;-73
2023/08/12 00:12:32;;;;;;;9.32;4.20;;;;;;;18.50;91.42;100728.22;5032145;28;20105;-73
2023/08/12 00:14:58;;;;;;;7.15;4.20;;;;;;;18.44;93.20;100783.94;4981213;28;20416;-73
2023/08/12 00:17:24;;;;;;;8.75;4.90;;;;;;;18.36;93.76;100796.06;5032649;28;20029;-73
2023/08/12 00:19:49;;;;;;;6.40;4.85;;;;;;;18.35;93.60;100796.94;5032076;28;20029;-73
2023/08/12 00:22:15;;;;;;;5.95;4.57;;;;;;;17.85;95.23;100765.00;5032209;28;20021;-72
2023/08/12 00:24:40;;;;;;;5.40;4.63;;;;;;;18.09;95.49;100810.59;5031975;28;20466;-72
2023/08/12 00:27:08;;;;;;;10.85;5.07;;;;;;;17.92;95.53;100787.72;5032088;28;20029;-72
2023/08/12 00:29:34;;;;;;;7.45;4.63;;;;;;;18.07;95.29;100804.47;5032155;28;20025;-72
2023/08/12 00:31:59;;;;;;;7.05;5.07;;;;;;;18.22;95.11;100806.38;5031938;28;20029;-73
2023/08/12 00:34:25;;;;;;;6.68;4.80;;;;;;;18.39;93.88;100806.53;5031858;28;20382;-73
2023/08/12 00:36:50;;;;;;;7.00;4.53;;;;;;;18.18;92.40;100742.75;5032104;28;20483;-72
2023/08/12 00:39:15;;;;;;;6.88;4.78;;;;;;;18.72;91.81;100807.75;5031754;28;20036;-73
2023/08/12 00:41:41;;;;;;;8.27;4.90;;;;;;;18.77;91.00;100808.66;5031830;28;20033;-72
2023/08/12 00:44:06;;;;;;;6.95;5.05;;;;;;;18.94;89.91;100808.84;5013993;28;20459;-73
2023/08/12 00:46:33;;;;;;;7.32;5.03;;;;;;;19.12;89.20;100815.06;5031721;28;20037;-73
2023/08/12 00:48:59;;;;;;;7.75;4.97;;;;;;;19.11;88.92;100798.47;5031872;28;20021;-73
2023/08/12 00:51:25;;;;;;;6.25;4.40;;;;;;;19.17;88.83;100803.75;5031781;28;20029;-73
2023/08/12 00:53:51;;;;;;;9.43;4.95;;;;;;;19.19;88.22;100793.28;5031319;28;20021;-73
2023/08/12 00:56:17;;;;;;;7.93;5.30;;;;;;;19.22;88.13;100777.63;5031633;28;20029;-73
2023/08/12 00:58:43;;;;;;;6.40;4.60;;;;;;;19.32;87.93;100799.50;5031617;28;20037;-73
2023/08/12 01:01:09;;;;;;;7.72;4.55;;;;;;;19.27;87.87;100781.13;5031354;28;20030;-73
2023/08/12 01:03:34;;;;;;;6.43;4.82;;;;;;;19.39;87.31;100791.69;5031079;28;20033;-73
2023/08/12 01:06:00;;;;;;;7.28;4.78;;;;;;;19.39;87.00;100799.53;5031206;28;20053;-73
2023/08/12 01:08:30;;;;;;;8.15;5.38;;;;;;;18.86;86.96;100732.00;5030992;28;20037;-73
2023/08/12 01:11:25;;;;;;;5.88;4.88;;;;;;;19.04;88.68;100791.44;4996289;28;20034;-72
2023/08/12 01:14:11;;;;;;;7.47;4.90;;;;;;;19.08;89.07;100807.19;5031036;28;20504;-72
2023/08/12 01:16:43;;;;;;;11.93;5.25;;;;;;;18.94;89.31;100776.56;5030843;28;20508;-73
2023/08/12 01:19:16;;;;;;;12.02;5.60;;;;;;;19.07;89.42;100792.34;5031275;28;20606;-73
2023/08/12 01:21:44;;;;;;;12.70;4.90;;;;;;;19.01;89.22;100783.59;5031048;28;20041;-72
2023/08/12 01:24:09;;;;;;;8.98;5.38;;;;;;;19.12;87.88;100800.22;5030420;28;20519;-73
2023/08/12 01:26:35;;;;;;;8.10;4.90;;;;;;;19.05;87.14;100796.72;5008585;28;20038;-72
2023/08/12 01:29:01;;;;;;;8.25;5.22;;;;;;;19.05;86.91;100790.59;4960035;28;20125;-73
2023/08/12 01:31:34;;;;;;;9.60;5.15;;;;;;;18.95;87.30;100788.78;5008684;28;20489;-72
2023/08/12 01:34:12;;;;;;;7.80;5.25;;;;;;;19.02;87.27;100782.72;5008886;28;20069;-73
2023/08/12 01:36:41;;;;;;;7.43;4.90;;;;;;;18.91;88.09;100787.88;5008940;28;20049;-73
2023/08/12 01:39:09;;;;;;;8.32;5.43;;;;;;;18.91;88.04;100786.13;5008621;28;20030;-72
2023/08/12 01:41:36;;;;;;;7.68;4.75;;;;;;;18.50;88.06;100713.41;5007916;28;20057;-73
2023/08/12 01:44:03;;;;;;;7.53;5.07;;;;;;;18.96;86.60;100780.06;5008715;28;20045;-73
2023/08/12 01:46:29;;;;;;;8.88;5.38;;;;;;;18.84;87.85;100766.00;5008426;28;20048;-72
2023/08/12 01:48:54;;;;;;;7.32;5.07;;;;;;;18.21;88.37;100669.59;5008525;28;20140;-73
2023/08/12 01:51:20;;;;;;;8.80;4.72;;;;;;;18.79;88.69;100780.78;5008444;28;20140;-72
2023/08/12 01:53:45;;;;;;;6.35;4.45;;;;;;;18.70;89.80;100789.41;5008530;28;20505;-72
2023/08/12 01:56:10;;;;;;;8.13;4.80;;;;;;;18.23;90.61;100730.63;5008263;28;20029;-73
2023/08/12 01:58:36;;;;;;;7.50;4.72;;;;;;;18.62;90.50;100792.81;5028966;28;20049;-72
2023/08/12 02:01:01;;;;;;;7.35;4.80;;;;;;;18.26;90.41;100729.75;5030776;28;20021;-72
2023/08/12 02:03:26;;;;;;;7.05;4.90;;;;;;;18.49;90.66;100773.53;5030835;28;20039;-72
2023/08/12 02:05:52;;;;;;;8.25;5.22;;;;;;;18.55;90.37;100784.03;5030502;28;20053;-72
2023/08/12 02:08:17;;;;;;;7.68;5.10;;;;;;;18.57;90.22;100793.66;5030313;28;20021;-72
2023/08/12 02:10:43;;;;;;;7.55;4.68;;;;;;;18.53;88.90;100791.00;5030137;28;20022;-72
2023/08/12 02:13:08;;;;;;;10.98;4.97;;;;;;;18.56;88.48;100791.91;5030722;28;20017;-72
2023/08/12 02:15:34;;;;;;;8.43;4.97;;;;;;;18.01;90.16;100728.66;5030548;28;20400;-73
2023/08/12 02:17:59;;;;;;;9.85;5.20;;;;;;;18.32;91.22;100787.31;5030602;28;20533;-73
2023/08/12 02:20:24;;;;;;;8.15;5.00;;;;;;;18.20;92.17;100790.66;5030326;28;20026;-72
2023/08/12 02:22:50;;;;;;;7.82;5.15;;;;;;;18.27;92.07;100804.69;5030147;28;20036;-72
2023/08/12 02:25:15;;;;;;;7.22;4.82;;;;;;;18.29;89.93;100797.72;5030325;28;20109;-72
2023/08/12 02:27:41;;;;;;;7.03;5.05;;;;;;;18.28;89.40;100796.00;5030566;28;20026;-72
2023/08/12 02:30:07;;;;;;;7.90;5.53;;;;;;;18.28;89.80;100790.78;5030064;28;20025;-73
2023/08/12 02:32:32;;;;;;;8.00;4.80;;;;;;;17.90;90.64;100745.03;4979309;28;20570;-72
2023/08/12 02:34:58;;;;;;;9.75;4.97;;;;;;;18.19;91.08;100801.13;5032061;28;20029;-72
2023/08/12 02:37:23;;;;;;;7.88;5.10;;;;;;;18.21;90.65;100802.03;5034467;28;20033;-72
2023/08/12 02:39:48;;;;;;;8.55;5.32;;;;;;;17.87;89.88;100750.22;5033813;28;20025;-72
2023/08/12 02:42:17;;;;;;;9.07;5.25;;;;;;;18.06;89.93;100805.34;5034082;28;20033;-72
2023/08/12 02:44:42;;;;;;;8.05;5.97;;;;;;;18.01;89.30;100807.03;5034166;28;20048;-72
2023/08/12 02:47:07;;;;;;;7.70;4.95;;;;;;;17.96;89.31;100809.56;5033985;28;20025;-72
2023/08/12 02:49:33;;;;;;;7.78;5.07;;;;;;;17.91;89.53;100814.69;4999003;28;20053;-72
2023/08/12 02:51:58;;;;;;;14.27;5.38;;;;;;;17.77;90.49;100818.88;5034066;28;20033;-72
2023/08/12 02:54:24;;;;;;;12.70;5.20;;;;;;;17.70;90.59;100817.03;4982471;28;20041;-72
2023/08/12 02:56:50;;;;;;;12.05;5.20;;;;;;;17.78;90.78;100823.22;5033804;28;20067;-72
2023/08/12 02:59:16;;;;;;;7.90;4.93;;;;;;;17.81;90.77;100825.00;4998660;28;20167;-72
2023/08/12 03:01:44;;;;;;;8.68;5.28;;;;;;;17.81;91.33;100830.22;5033629;28;20113;-72
2023/08/12 03:04:10;;;;;;;9.48;5.30;;;;;;;17.66;91.21;100805.69;5033631;28;20072;-72
2023/08/12 03:06:36;;;;;;;10.52;5.38;;;;;;;17.82;91.00;100816.31;5033711;28;20506;-72
2023/08/12 03:09:02;;;;;;;8.23;4.85;;;;;;;17.87;91.08;100815.53;5033346;28;20104;-72
2023/08/12 03:11:27;;;;;;;20.88;5.50;;;;;;;17.88;90.41;100814.69;5033706;28;20021;-72
2023/08/12 03:13:52;;;;;;;22.83;6.20;;;;;;;17.89;89.66;100813.78;5015738;28;20104;-72
2023/08/12 03:16:18;;;;;;;9.57;4.65;;;;;;;17.84;89.46;100798.94;5033734;28;20025;-72
2023/08/12 03:18:43;;;;;;;11.68;4.85;;;;;;;17.75;89.62;100821.47;5033669;28;20420;-72
2023/08/12 03:21:09;;;;;;;8.60;4.95;;;;;;;17.67;89.93;100822.22;5033692;28;20026;-72
2023/08/12 03:23:35;;;;;;;11.80;4.93;;;;;;;17.47;90.25;100799.34;5033209;28;20074;-72
2023/08/12 03:26:01;;;;;;;8.35;4.90;;;;;;;17.57;90.44;100813.38;5033078;28;20026;-72
2023/08/12 03:28:26;;;;;;;17.02;5.35;;;;;;;17.67;90.45;100822.22;5033579;28;20078;-72
2023/08/12 03:30:52;;;;;;;7.82;4.70;;;;;;;17.70;90.07;100819.66;5033227;28;20090;-72
2023/08/12 03:33:18;;;;;;;8.05;5.15;;;;;;;17.70;90.17;100827.50;5033357;28;20091;-72
2023/08/12 03:35:48;;;;;;;17.05;6.03;;;;;;;17.78;90.00;100823.22;5033339;28;20456;-73
2023/08/12 03:38:14;;;;;;;6.60;4.55;;;;;;;17.83;90.08;100818.06;5032872;28;20037;-72
2023/08/12 03:40:41;;;;;;;7.63;4.82;;;;;;;17.85;89.59;100822.47;5033159;28;20043;-72
2023/08/12 03:43:07;;;;;;;6.85;4.22;;;;;;;17.86;89.88;100820.75;5024561;28;20040;-73
2023/08/12 03:45:39;;;;;;;11.75;5.15;;;;;;;17.91;89.66;100826.91;5032668;28;20030;-72
2023/08/12 03:48:05;;;;;;;6.18;4.53;;;;;;;17.83;89.71;100831.13;5032688;28;20037;-72
2023/08/12 03:50:34;;;;;;;7.25;4.55;;;;;;;17.73;89.99;100831.03;5033077;28;20091;-72
2023/08/12 03:52:59;;;;;;;7.30;4.70;;;;;;;17.74;90.18;100834.50;5032430;28;20099;-72
2023/08/12 03:55:25;;;;;;;5.45;4.38;;;;;;;17.62;90.88;100830.00;5032622;28;20485;-72
2023/08/12 03:57:51;;;;;;;6.00;4.10;;;;;;;17.63;90.90;100832.63;5032949;28;20084;-72
2023/08/12 04:00:17;;;;;;;7.90;4.35;;;;;;;17.38;91.02;100788.75;5032638;28;20377;-72
2023/08/12 04:02:43;;;;;;;6.95;4.55;;;;;;;17.67;91.09;100843.09;5014840;28;20032;-72
2023/08/12 04:05:08;;;;;;;7.57;4.72;;;;;;;17.69;90.88;100836.19;5032852;28;20412;-73
2023/08/12 04:07:36;;;;;;;6.05;4.35;;;;;;;17.53;91.45;100827.25;5032538;28;20037;-72
2023/08/12 04:10:02;;;;;;;7.85;4.43;;;;;;;17.48;92.00;100823.69;5032529;28;20049;-72
2023/08/12 04:12:27;;;;;;;6.32;4.20;;;;;;;17.54;92.10;100840.31;5033049;28;20480;-72
2023/08/12 04:14:53;;;;;;;5.40;4.28;;;;;;;17.52;92.48;100839.44;5032410;28;20033;-72
2023/08/12 04:17:18;;;;;;;6.85;4.35;;;;;;;17.41;93.25;100841.88;5032602;28;20029;-72
2023/08/12 04:19:43;;;;;;;8.20;4.90;;;;;;;17.27;93.76;100848.59;5032233;28;20122;-72
2023/08/12 04:22:09;;;;;;;6.93;4.53;;;;;;;17.35;94.26;100851.38;5031882;28;20029;-72
2023/08/12 04:24:34;;;;;;;8.57;4.85;;;;;;;17.25;94.49;100842.50;5032362;28;20026;-72
2023/08/12 04:27:01;;;;;;;6.00;4.65;;;;;;;17.41;94.46;100856.69;4970987;28;20047;-73
2023/08/12 04:29:26;;;;;;;8.43;4.43;;;;;;;17.46;95.10;100855.00;4970813;28;20042;-72
2023/08/12 04:31:52;;;;;;;7.05;4.85;;;;;;;17.34;95.33;100860.03;4970968;28;20047;-73
2023/08/12 04:34:18;;;;;;;8.38;4.70;;;;;;;17.42;95.89;100867.13;4970942;28;20069;-72
2023/08/12 04:36:44;;;;;;;6.07;5.00;;;;;;;17.44;95.33;100860.19;4970661;28;20043;-72
2023/08/12 04:39:10;;;;;;;6.85;4.60;;;;;;;17.16;96.00;100814.56;4970893;28;20117;-72
2023/08/12 04:41:35;;;;;;;8.15;4.93;;;;;;;17.38;95.99;100867.06;4970746;28;20078;-72
2023/08/12 04:44:01;;;;;;;5.63;4.53;;;;;;;17.17;96.06;100816.31;4970728;28;20129;-72
2023/08/12 04:46:26;;;;;;;8.68;5.28;;;;;;;17.47;95.33;100872.44;4970568;28;20114;-72
2023/08/12 04:48:52;;;;;;;7.35;5.40;;;;;;;17.65;95.10;100865.72;4970520;28;20034;-72
2023/08/12 04:51:17;;;;;;;7.40;4.50;;;;;;;17.81;94.59;100870.28;4970417;28;20030;-73
2023/08/12 04:53:42;;;;;;;6.85;5.07;;;;;;;17.77;95.44;100871.13;4970505;28;20047;-72
2023/08/12 04:56:08;;;;;;;9.65;5.60;;;;;;;17.70;97.19;100869.28;4970664;28;20579;-72
2023/08/12 04:58:34;;;;;;;6.47;5.20;;;;;;;17.61;97.57;100867.41;5014204;28;20071;-72
2023/08/12 05:01:00;;;;;;;6.82;4.88;;;;;;;17.56;98.54;100856.88;5031677;28;20025;-72
2023/08/12 05:03:26;;;;;;;6.65;5.03;;;;;;;17.71;97.95;100869.28;5031479;28;20480;-72
2023/08/12 05:05:52;;;;;;;6.20;5.18;;;;;;;17.73;96.12;100853.63;5031193;28;20061;-73
2023/08/12 05:08:17;;;;;;;7.28;4.95;;;;;;;17.94;96.79;100874.88;5031272;28;20029;-72
2023/08/12 05:10:43;;;;;;;8.07;4.47;;;;;;;18.01;94.80;100861.88;5031305;28;20025;-72
2023/08/12 05:13:09;;;;;;;6.70;4.50;;;;;;;18.22;92.82;100880.44;5031397;28;20085;-73
2023/08/12 05:15:36;;;;;;;6.70;4.38;;;;;;;18.38;90.47;100870.13;5031302;28;20400;-72
2023/08/12 05:18:02;;;;;;;6.57;5.13;;;;;;;18.39;90.81;100864.06;5031086;28;20028;-72
2023/08/12 05:20:28;;;;;;;8.45;5.40;;;;;;;18.45;91.86;100869.34;5030784;28;20116;-73
2023/08/12 05:22:53;;;;;;;7.40;4.82;;;;;;;18.54;93.04;100866.84;5031281;28;20065;-73
2023/08/12 05:25:19;;;;;;;6.38;4.70;;;;;;;18.62;90.95;100868.66;5031422;28;20029;-72
2023/08/12 05:27:44;;;;;;;5.97;4.22;;;;;;;18.61;89.97;100866.91;5031191;28;20038;-72
2023/08/12 05:30:10;;;;;;;6.72;4.40;;;;;;;18.68;90.45;100860.88;5030886;28;20497;-73
2023/08/12 05:32:35;;;;;;;6.50;4.88;;;;;;;18.58;90.89;100866.00;5031441;28;20068;-72
2023/08/12 05:35:01;;;;;;;8.50;4.55;;;;;;;18.68;92.52;100868.72;5030890;28;20116;-73
2023/08/12 05:37:26;;;;;;;16.88;5.20;;;;;;;18.83;92.02;100868.88;5030957;28;20022;-73
2023/08/12 05:39:51;;;;;;;9.15;4.55;;;;;;;19.06;91.30;100868.22;5030895;28;20100;-73
2023/08/12 05:42:17;;;;;;;6.80;5.07;;;;;;;19.28;91.05;100866.66;5030830;28;20021;-72
2023/08/12 05:44:42;;;;;;;9.65;4.38;;;;;;;19.39;90.36;100869.38;5030968;28;20033;-72
2023/08/12 05:47:08;;;;;;;8.93;4.55;;;;;;;19.56;89.61;100870.34;5030719;28;20025;-72
2023/08/12 05:49:33;;;;;;;6.43;4.55;;;;;;;19.70;88.77;100865.19;5030314;28;20084;-72
2023/08/12 05:51:59;;;;;;;6.30;4.35;;;;;;;19.88;87.99;100863.56;4979301;28;20050;-73
2023/08/12 05:54:24;;;;;;;7.35;4.50;;;;;;;19.90;87.22;100822.53;5030942;28;20040;-73
2023/08/12 05:56:50;;;;;;;8.27;4.57;;;;;;;20.24;86.46;100855.81;5031180;28;20113;-72
2023/08/12 05:59:15;;;;;;;6.53;4.25;;;;;;;20.34;87.06;100847.16;5030822;28;20044;-73
2023/08/12 06:01:40;;;;;;;9.70;4.68;;;;;;;20.58;86.20;100871.69;5030618;28;20025;-72
2023/08/12 06:04:06;;;;;;;7.47;4.43;;;;;;;20.82;83.45;100860.34;5030443;28;20454;-72
2023/08/12 06:06:31;;;;;;;9.20;4.03;;;;;;;20.99;80.83;100868.25;5030677;28;20065;-72
2023/08/12 06:08:57;;;;;;;5.45;4.10;;;;;;;21.01;82.36;100854.25;5030258;28;20120;-72
2023/08/12 06:11:22;;;;;;;7.53;4.03;;;;;;;21.24;82.85;100869.13;5030334;28;20026;-72
2023/08/12 06:13:48;;;;;;;6.28;4.22;;;;;;;21.33;80.97;100871.75;5030437;28;20044;-72
2023/08/12 06:16:13;;;;;;;6.03;3.80;;;;;;;21.09;79.85;100814.00;5030631;28;20049;-73
2023/08/12 06:18:39;;;;;;;4.95;4.10;;;;;;;21.08;81.61;100796.50;5030148;28;20030;-72
2023/08/12 06:21:04;;;;;;;6.30;3.70;;;;;;;21.55;79.25;100868.22;5030608;28;20025;-72
2023/08/12 06:23:30;;;;;;;4.20;3.30;;;;;;;21.70;77.20;100872.59;5012823;28;20033;-72
2023/08/12 06:25:55;;;;;;;8.23;3.78;;;;;;;21.65;75.89;100820.03;5030059;28;20032;-72
2023/08/12 06:28:21;;;;;;;4.70;3.35;;;;;;;22.01;77.19;100856.69;5030219;28;20060;-72
2023/08/12 06:30:48;;;;;;;6.28;3.75;;;;;;;21.78;75.79;100800.72;5012721;28;20469;-73
2023/08/12 06:33:14;;;;;;;6.50;3.75;;;;;;;22.10;76.58;100854.03;5030156;28;20034;-73
2023/08/12 06:35:39;;;;;;;6.00;3.85;;;;;;;22.12;76.69;100850.50;5029973;28;20482;-72
2023/08/12 06:38:05;;;;;;;6.55;3.78;;;;;;;22.34;73.59;100857.41;5030249;28;20067;-73
2023/08/12 06:40:31;;;;;;;5.93;3.85;;;;;;;22.33;73.71;100834.63;5030254;28;20117;-73
2023/08/12 06:42:56;;;;;;;11.25;4.57;;;;;;;22.01;73.65;100772.56;5030274;28;20395;-73
2023/08/12 06:45:22;;;;;;;8.10;3.60;;;;;;;22.44;74.62;100846.00;5030073;28;20411;-73
2023/08/12 06:47:47;;;;;;;5.22;3.08;;;;;;;22.47;72.59;100838.09;5029856;28;20048;-72
2023/08/12 06:50:12;;;;;;;4.80;2.78;;;;;;;22.51;71.65;100847.69;5029985;28;20037;-73
2023/08/12 06:52:38;;;;;;;5.63;3.17;;;;;;;22.44;73.65;100828.47;5030164;28;20037;-73
2023/08/12 06:55:04;;;;;;;4.82;2.95;;;;;;;22.73;70.22;100848.44;5030180;28;20040;-73
2023/08/12 06:57:29;;;;;;;5.78;2.80;;;;;;;22.91;68.50;100839.50;5030122;28;20456;-73
2023/08/12 06:59:54;;;;;;;7.32;2.58;;;;;;;23.18;67.12;100834.94;5030117;28;20029;-73
2023/08/12 07:02:21;;;;;;;5.78;3.80;;;;;;;23.39;68.01;100831.22;5030144;28;20021;-72
2023/08/12 07:04:47;;;;;;;3.85;2.92;;;;;;;23.05;68.46;100776.22;5030102;28;20477;-73
2023/08/12 07:07:13;;;;;;;4.97;2.67;;;;;;;23.43;66.54;100829.41;5030270;28;20057;-73
2023/08/12 07:09:38;;;;;;;3.47;2.47;;;;;;;23.51;64.80;100813.53;5030193;28;20029;-72
2023/08/12 07:12:04;;;;;;;6.43;2.88;;;;;;;23.65;66.20;100830.06;5029920;28;20033;-73
2023/08/12 07:14:30;;;;;;;4.72;2.60;;;;;;;23.70;66.60;100819.44;5029494;28;20472;-74
2023/08/12 07:16:55;;;;;;;3.40;2.63;;;;;;;23.85;64.30;100805.19;5029575;28;20032;-73
2023/08/12 07:19:20;;;;;;;9.18;3.42;;;;;;;23.93;63.95;100813.94;5029988;28;20025;-73
2023/08/12 07:21:46;;;;;;;11.43;4.63;;;;;;;24.04;64.15;100817.28;5031034;28;20419;-72
2023/08/12 07:24:11;;;;;;;6.03;2.90;;;;;;;24.09;64.57;100804.06;5033300;28;20021;-73
2023/08/12 07:26:37;;;;;;;4.45;2.78;;;;;;;23.96;62.15;100755.84;5030966;28;20029;-73
2023/08/12 07:29:03;;;;;;;3.80;2.90;;;;;;;24.43;62.60;100797.41;5013538;28;20040;-72
2023/08/12 07:31:28;;;;;;;3.90;2.78;;;;;;;24.50;61.32;100801.69;5013247;28;20032;-72
2023/08/12 07:33:53;;;;;;;6.15;3.42;;;;;;;24.46;62.82;100802.63;5013461;28;20048;-73
2023/08/12 07:36:19;;;;;;;5.88;3.38;;;;;;;24.19;63.03;100744.97;5013455;28;20104;-73
2023/08/12 07:38:45;;;;;;;9.50;3.10;;;;;;;24.53;60.78;100799.00;5013398;28;20057;-73
2023/08/12 07:41:11;;;;;;;4.65;2.92;;;;;;;24.70;61.63;100797.00;5013553;28;20037;-73
2023/08/12 07:43:36;;;;;;;6.90;3.17;;;;;;;24.71;61.50;100800.50;5013164;28;20096;-73
2023/08/12 07:46:02;;;;;;;6.43;3.65;;;;;;;24.74;62.42;100802.25;5013073;28;20132;-74
2023/08/12 07:48:27;;;;;;;4.65;3.00;;;;;;;24.73;60.75;100801.34;5013352;28;20022;-73
2023/08/12 07:50:59;;;;;;;4.13;2.53;;;;;;;24.83;57.82;100778.31;5013364;28;20033;-73
2023/08/12 07:53:25;;;;;;;5.07;2.95;;;;;;;25.29;58.36;100797.75;5013256;28;20092;-72
2023/08/12 07:55:51;;;;;;;3.95;2.70;;;;;;;25.31;58.16;100783.59;5013280;28;20108;-72
2023/08/12 07:58:17;;;;;;;3.88;2.60;;;;;;;25.27;58.15;100787.19;5013049;28;20124;-73
2023/08/12 08:00:42;;;;;;;4.28;2.25;;;;;;;25.27;58.63;100771.34;5012802;28;20419;-73
2023/08/12 08:03:08;;;;;;;13.32;6.43;;;;;;;25.58;56.54;100778.66;5013017;28;20033;-72
2023/08/12 08:05:33;;;;;;;42.53;23.65;;;;;;;25.58;56.90;100778.66;5013029;28;20077;-73
2023/08/12 08:07:59;;;;;;;34.75;18.80;;;;;;;25.61;56.15;100780.38;5012800;28;20028;-73
2023/08/12 08:10:25;;;;;;;35.80;17.58;;;;;;;25.54;57.41;100769.06;5012773;28;20033;-73
2023/08/12 08:12:50;;;;;;;6.68;4.05;;;;;;;25.24;57.13;100720.31;5012729;28;20022;-73
2023/08/12 08:15:16;;;;;;;7.35;3.10;;;;;;;25.73;55.49;100771.34;5012914;28;20111;-73
2023/08/12 08:17:41;;;;;;;4.68;2.53;;;;;;;25.95;57.12;100771.75;5012525;28;20030;-73
2023/08/12 08:20:08;;;;;;;3.10;2.50;;;;;;;26.05;56.04;100765.34;4994792;28;20045;-73
2023/08/12 08:22:33;;;;;;;3.53;2.40;;;;;;;25.79;53.48;100718.31;5012634;28;20030;-74
2023/08/12 08:24:59;;;;;;;3.28;2.13;;;;;;;26.15;56.46;100763.38;5012408;28;20030;-73
2023/08/12 08:27:24;;;;;;;4.72;2.78;;;;;;;26.24;53.65;100775.53;5012623;28;20026;-73
2023/08/12 08:29:50;;;;;;;6.10;2.20;;;;;;;26.00;51.10;100720.44;5012240;28;20030;-73
2023/08/12 08:32:16;;;;;;;6.30;2.90;;;;;;;26.40;55.94;100765.44;5011939;28;20033;-73
2023/08/12 08:34:42;;;;;;;5.68;2.50;;;;;;;26.47;50.81;100769.69;5012118;28;20437;-74
2023/08/12 08:37:07;;;;;;;5.57;2.47;;;;;;;26.57;50.58;100757.97;5012458;28;20034;-74
2023/08/12 08:39:33;;;;;;;4.78;2.28;;;;;;;26.56;51.96;100737.69;5009096;28;20030;-73
2023/08/12 08:41:59;;;;;;;5.35;3.15;;;;;;;26.72;54.19;100750.53;5009022;28;20041;-73
2023/08/12 08:44:29;;;;;;;3.22;2.42;;;;;;;26.77;52.77;100754.84;5011915;28;20033;-73
2023/08/12 08:46:55;;;;;;;4.97;2.53;;;;;;;26.71;51.42;100746.16;5012343;28;20129;-73
2023/08/12 08:49:22;;;;;;;4.13;2.17;;;;;;;26.59;49.85;100695.25;5012227;28;20040;-74
2023/08/12 08:51:49;;;;;;;2.75;2.10;;;;;;;27.01;49.43;100746.28;5011952;28;20489;-73
2023/08/12 08:54:15;;;;;;;4.53;2.42;;;;;;;27.22;52.53;100744.81;5012155;28;20057;-73
2023/08/12 08:56:41;;;;;;;3.67;2.40;;;;;;;27.17;50.01;100739.63;5011783;28;20041;-74
2023/08/12 08:59:07;;;;;;;4.38;2.22;;;;;;;27.16;48.79;100745.00;4994154;28;20025;-74
2023/08/12 09:01:34;;;;;;;4.32;2.20;;;;;;;27.27;48.75;100732.31;5011999;28;20096;-74
2023/08/12 09:03:59;;;;;;;6.68;2.05;;;;;;;27.35;48.20;100718.81;5011831;28;20469;-74
2023/08/12 09:06:27;;;;;;;6.82;2.92;;;;;;;27.47;52.01;100723.81;5011552;28;20061;-74
2023/08/12 09:08:53;;;;;;;5.18;2.88;;;;;;;27.53;50.51;100720.13;5011703;28;20041;-73
2023/08/12 09:11:19;;;;;;;6.60;2.58;;;;;;;27.66;51.61;100717.94;5011657;28;20022;-73
2023/08/12 09:13:45;;;;;;;11.52;3.30;;;;;;;27.65;52.08;100703.81;5011395;28;20058;-74
2023/08/12 09:16:10;;;;;;;14.10;4.40;;;;;;;27.98;47.84;100716.09;5011784;28;20033;-73
2023/08/12 09:18:37;;;;;;;8.30;3.50;;;;;;;28.07;47.79;100708.72;5011421;28;20030;-72
2023/08/12 09:21:04;;;;;;;5.35;2.72;;;;;;;27.83;45.67;100673.19;5011559;28;20052;-73
2023/08/12 09:23:44;;;;;;;4.97;2.50;;;;;;;28.16;47.40;100709.34;5011635;28;20033;-74
2023/08/12 09:26:15;;;;;;;7.32;2.42;;;;;;;28.32;47.03;100715.88;5010981;28;20033;-74
2023/08/12 09:28:41;;;;;;;5.95;2.42;;;;;;;28.36;45.09;100692.75;5011279;28;20049;-74
2023/08/12 09:31:07;;;;;;;12.88;4.10;;;;;;;28.54;44.12;100689.47;5011251;28;20034;-74
2023/08/12 09:33:32;;;;;;;4.05;2.63;;;;;;;28.79;43.53;100695.75;5011011;28;20037;-74
2023/08/12 09:35:58;;;;;;;6.63;2.72;;;;;;;28.56;45.75;100642.47;5011147;28;20038;-74
2023/08/12 09:38:23;;;;;;;5.75;2.13;;;;;;;28.88;45.19;100690.94;4993365;28;20096;-73
2023/08/12 09:40:54;;;;;;;5.45;2.30;;;;;;;28.89;47.03;100684.72;5010862;28;20026;-74
2023/08/12 09:43:24;;;;;;;5.20;2.53;;;;;;;28.99;43.38;100664.00;5010852;28;20057;-73
2023/08/12 09:45:49;;;;;;;4.63;2.30;;;;;;;29.03;43.36;100654.13;5010779;28;20151;-74
2023/08/12 09:48:17;;;;;;;3.58;2.30;;;;;;;29.42;42.55;100680.13;5010884;28;20030;-74
2023/08/12 09:50:42;;;;;;;19.33;4.68;;;;;;;29.46;43.51;100665.81;5010885;28;20092;-74
2023/08/12 09:53:09;;;;;;;20.98;3.92;;;;;;;29.48;44.49;100636.50;5010624;28;20061;-74
2023/08/12 09:55:36;;;;;;;13.43;2.92;;;;;;;29.89;40.80;100676.56;5010984;28;20030;-74
2023/08/12 09:58:06;;;;;;;12.88;3.53;;;;;;;29.94;41.38;100671.06;4959881;28;20508;-74
2023/08/12 10:00:33;;;;;;;11.15;3.88;;;;;;;29.70;42.38;100625.88;5010778;28;20029;-73
2023/08/12 10:03:00;;;;;;;7.55;2.63;;;;;;;30.12;41.27;100664.09;4976203;28;20042;-74
2023/08/12 10:05:32;;;;;;;9.45;3.53;;;;;;;30.02;41.33;100623.72;4960166;28;20060;-74
2023/08/12 10:07:58;;;;;;;4.97;2.65;;;;;;;30.34;40.01;100658.72;5010602;28;20029;-74
2023/08/12 10:10:24;;;;;;;4.40;2.30;;;;;;;30.36;37.52;100619.59;5010781;28;20074;-74
2023/08/12 10:12:51;;;;;;;11.52;3.10;;;;;;;30.62;37.44;100655.78;5010907;28;20481;-74
2023/08/12 10:15:18;;;;;;;12.48;3.90;;;;;;;30.48;38.69;100661.72;5010460;28;20068;-74
2023/08/12 10:17:45;;;;;;;11.30;3.22;;;;;;;30.56;38.71;100653.38;5010887;28;20030;-74
2023/08/12 10:20:19;;;;;;;9.52;2.50;;;;;;;30.79;39.54;100649.72;5010935;28;20030;-74
2023/08/12 10:22:46;;;;;;;11.18;2.70;;;;;;;31.02;39.52;100645.13;5010366;28;20485;-74
2023/08/12 10:25:13;;;;;;;8.20;2.80;;;;;;;30.86;36.83;100596.13;5010519;28;20026;-74
2023/08/12 10:27:39;;;;;;;7.03;2.63;;;;;;;30.91;38.76;100596.78;5011059;28;20030;-74
2023/08/12 10:30:06;;;;;;;9.70;3.22;;;;;;;31.16;37.21;100649.84;5010765;28;20765;-74
2023/08/12 10:32:32;;;;;;;5.07;2.53;;;;;;;31.39;37.30;100642.56;4993012;28;20105;-74
2023/08/12 10:34:58;;;;;;;8.77;2.75;;;;;;;31.60;34.94;100633.53;5010096;28;20018;-74
2023/08/12 10:37:25;;;;;;;13.00;3.40;;;;;;;31.73;35.95;100636.50;5010445;28;20481;-74
2023/08/12 10:40:29;;;;;;;19.02;4.70;;;;;;;31.83;35.02;100628.91;4968902;28;20042;-73
2023/08/12 10:42:54;;;;;;;8.20;2.80;;;;;;;32.03;35.74;100633.22;4968938;28;20047;-73
2023/08/12 10:45:20;;;;;;;5.85;2.30;;;;;;;32.03;37.72;100603.00;4968887;28;20046;-73
2023/08/12 10:48:09;;;;;;;2.78;2.10;;;;;;;32.42;34.93;100637.50;4969098;28;20098;-73
2023/08/12 10:50:34;;;;;;;;;;;;;;;32.16;34.45;100636.13;4969503;28;20093;-74
2023/08/12 10:53:30;;;;;;;3.30;1.90;;;;;;;31.64;35.71;100631.63;4968848;28;19914;-74
2023/08/12 10:55:57;;;;;;;6.57;2.53;;;;;;;31.46;36.02;100628.84;4968879;28;20122;-74
2023/08/12 10:58:40;;;;;;;5.63;2.28;;;;;;;31.57;38.21;100635.50;4972646;28;20064;-74
2023/08/12 11:01:13;;;;;;;6.13;2.33;;;;;;;31.85;34.60;100626.13;4972658;28;20035;-74
2023/08/12 11:03:42;;;;;;;5.07;2.53;;;;;;;31.86;36.61;100615.38;4972358;28;20073;-75
2023/08/12 11:06:10;;;;;;;3.65;2.03;;;;;;;31.73;35.51;100608.94;4972206;28;20066;-74
2023/08/12 11:08:35;;;;;;;4.50;2.50;;;;;;;31.48;35.43;100617.25;4972396;28;20035;-74
2023/08/12 11:11:02;;;;;;;19.85;4.55;;;;;;;31.21;35.95;100607.81;4972651;28;20513;-74
2023/08/12 11:13:28;;;;;;;6.63;2.42;;;;;;;31.16;38.33;100612.50;4972504;28;20027;-73
2023/08/12 11:16:09;;;;;;;4.97;2.70;;;;;;;31.36;37.82;100610.72;4972357;28;20111;-73
2023/08/12 11:18:35;;;;;;;3.67;2.17;;;;;;;31.40;38.30;100559.78;4992088;28;20037;-73
2023/08/12 11:21:02;;;;;;;6.72;2.60;;;;;;;31.84;37.41;100590.59;5013697;28;20038;-73